CDT,Max TemperatureF,Mean TemperatureF,Min TemperatureF,Max Dew PointF,MeanDew PointF,Min DewpointF,Max Humidity, Mean Humidity, Min Humidity, Max Sea Level PressureIn, Mean Sea Level PressureIn, Min Sea Level PressureIn, Max VisibilityMiles, Mean VisibilityMiles, Min VisibilityMiles, Max Wind SpeedMPH, Mean Wind SpeedMPH, Max Gust SpeedMPH,PrecipitationIn, CloudCover, Events, WindDirDegrees
2012-3-1,73,55,37,53,35,25,75,49,22,29.95,29.83,29.64,10,10,10,16,6,21,0.00,0,,175
2012-3-2,83,61,39,63,51,26,87,50,13,29.94,29.61,29.48,10,10,10,41,18,53,0.00,3,,231
2012-3-3,57,44,31,33,23,11,85,52,18,30.04,29.97,29.92,10,10,10,24,7,81,0.00,0,,295
2012-3-4,64,48,32,31,24,19,64,42,19,30.05,29.98,29.87,10,10,10,23,9,86,T,2,,267
2012-3-5,60,49,38,32,26,20,59,43,26,30.46,30.34,30.09,10,10,5,18,7,23,0.00,0,,57
2012-3-6,73,56,39,37,32,25,64,46,27,30.32,30.23,30.14,10,10,10,26,13,36,0.00,0,,176
2012-3-7,74,63,51,57,47,34,64,54,43,30.21,30.13,30.04,10,10,10,29,17,39,T,4,Rain,182
2012-3-8,68,55,41,63,52,32,93,82,70,30.40,30.11,29.99,10,6,0,25,14,36,2.83,7,Fog-Rain-Thunderstorm,352
2012-3-9,62,48,34,38,33,29,82,59,35,30.51,30.46,30.43,10,10,10,20,9,29,0.00,0,,44
2012-3-10,61,49,37,37,32,29,70,53,35,30.48,30.38,30.27,10,10,10,16,8,20,0.25,0,,54
2012-3-11,63,53,43,58,50,35,93,75,56,30.26,30.12,30.00,10,9,2,25,9,32,0.22,6,Rain,133
2012-3-12,75,66,57,63,59,55,97,75,53,30.06,30.02,29.97,10,9,2,30,11,38,0.06,5,Rain,203
2012-3-13,78,68,57,62,60,57,97,76,54,30.16,30.10,30.06,10,9,4,16,7,21,0.00,3,,211
2012-3-14,82,69,56,66,61,56,100,77,54,30.16,30.11,30.07,10,9,5,31,9,139,0.00,0,,202
2012-3-15,82,73,63,64,62,60,87,69,51,30.18,30.12,30.06,10,10,10,24,10,30,0.00,1,,204
2012-3-16,75,68,61,66,61,57,97,83,69,30.17,30.11,30.06,10,9,2,20,7,29,0.64,4,Rain-Thunderstorm,159
2012-3-17,79,69,59,63,61,57,97,73,48,30.12,30.07,30.02,10,10,7,21,8,25,0.00,1,,188
2012-3-18,81,73,65,66,63,60,87,73,58,30.13,30.07,30.02,10,10,10,22,10,28,T,1,,190
2012-3-19,80,72,64,64,60,53,87,68,48,30.04,29.96,29.86,10,10,10,21,9,30,T,0,Rain,167
2012-3-20,80,73,65,61,58,55,78,62,45,29.96,29.90,29.83,10,10,10,51,12,155,0.00,1,,148
2012-3-21,73,64,54,63,57,51,86,70,53,29.96,29.92,29.86,10,10,7,29,14,40,0.31,5,Rain,157
2012-3-22,70,61,52,53,50,48,89,68,47,30.06,29.99,29.93,10,9,3,13,6,21,0.36,3,Rain,131
2012-3-23,65,58,50,57,52,44,93,73,52,29.96,29.91,29.87,10,10,5,23,8,29,0.23,5,Rain-Thunderstorm,230
2012-3-24,77,65,52,54,49,46,83,60,36,29.96,29.91,29.87,10,10,10,21,9,28,0.00,2,,301
2012-3-25,79,68,56,60,55,52,93,69,45,30.06,30.00,29.95,10,10,7,13,5,18,0.00,2,,7
2012-3-26,79,66,53,59,55,52,93,68,42,30.16,30.09,30.05,10,8,4,9,4,15,0.00,0,,48
2012-3-27,82,69,56,58,55,51,84,63,40,30.14,30.07,30.01,10,10,10,17,7,22,0.00,0,,138
2012-3-28,84,73,62,60,56,53,78,58,37,30.08,30.01,29.95,10,10,10,23,8,69,0.00,1,,224
2012-3-29,83,70,57,61,58,55,93,68,43,30.00,29.91,29.86,10,10,9,15,6,23,0.00,1,,219
2012-3-30,79,70,61,62,61,59,97,76,54,29.89,29.84,29.77,10,10,8,18,8,26,0.00,2,,216
2012-3-31,86,74,62,66,61,58,93,67,40,29.87,29.82,29.78,10,10,8,9,2,13,0.00,0,,258